Latest Weather Observations for Lajamanu

IDD60801

Issued at 8:41 pm CST Sunday 16 December 2018 (issued every 10 minutes, with the page automatically refreshed every 10 minutes)

About weather observations | Map of weather stations | Latest weather observations for NT | Other Formats
Station Details ID: 014829 Name: LAJAMANU AIRPORT Lat: -18.33 Lon: 130.64 Height: 315.6 m
Data from the previous 72 hours. | See also: Recent months at Lajamanu
Date/Time
CST
Temp
°C
App
Temp
°C
Dew
Point
°C
Rel
Hum
%
Delta-T
°C
Wind Press
QNH
hPa
Press
MSL
hPa
Rain since
9am
mm
Dir  Spd
km/h
Gust
km/h
Spd
kts
Gust
kts
16/08:30pm 36.6 34.7 15.1 27 13.7 N 19 28 10 15 1004.4 1001.8 0.0
16/08:00pm 37.8 36.1 12.4 22 15.6 N 13 17 7 9 1003.6 1001.0 0.0
16/07:30pm 38.6 37.3 12.4 21 16.2 NNE 11 15 6 8 1002.7 1000.1 0.0
16/07:00pm 39.2 37.0 12.1 20 16.6 NNE 15 20 8 11 1002.4 999.8 0.0
16/06:30pm 40.1 38.0 11.3 18 17.6 NE 13 20 7 11 1002.0 999.4 0.0
16/06:00pm 41.2 38.4 11.3 17 18.3 NNE 17 24 9 13 1002.1 999.5 0.0
16/05:30pm 41.0 37.6 11.1 17 18.3 NNE 20 30 11 16 1002.0 999.4 0.0
16/05:00pm 42.0 39.1 12.8 18 18.3 NE 20 33 11 18 1002.1 999.5 0.0
16/04:30pm 42.6 40.8 7.2 12 20.6 NNE 6 13 3 7 1002.2 999.6 0.0
16/04:00pm 43.1 40.2 6.3 11 21.1 WSW 11 20 6 11 1002.4 999.8 0.0
16/03:30pm 43.7 40.2 5.4 10 21.9 SSE 13 20 7 11 1003.0 1000.4 0.0
16/03:00pm 42.5 39.6 4.5 10 21.3 S 9 20 5 11 1003.4 1000.8 0.0
16/02:30pm 42.8 39.7 7.3 12 20.7 SE 13 26 7 14 1003.7 1001.1 0.0
16/02:00pm 42.9 40.2 7.4 12 20.7 S 11 22 6 12 1003.9 1001.3 0.0
16/01:30pm 41.9 40.9 10.9 16 19.0 WNW 7 15 4 8 1004.3 1001.7 0.0
16/01:00pm 41.0 40.1 13.6 20 17.3 SE 11 19 6 10 1004.7 1002.1 0.0
16/12:30pm 39.5 40.1 15.8 24 15.4 SSW 7 13 4 7 1005.1 1002.5 0.0
16/12:00pm 38.6 39.4 17.4 29 14.0 NW 9 17 5 9 1005.6 1003.0 0.0
16/11:30am 37.4 38.1 17.9 31 12.9 NW 11 19 6 10 1006.0 1003.5 0.0
16/11:00am 36.6 36.7 19.1 35 11.7 WSW 17 28 9 15 1006.4 1003.8 0.0
16/10:30am 36.1 36.5 19.9 38 11.0 WNW 17 24 9 13 1006.7 1004.1 0.0
16/10:00am 34.5 34.5 19.7 41 9.9 WNW 19 26 10 14 1007.0 1004.4 0.0
16/09:30am 33.6 32.8 19.3 43 9.5 NW 22 33 12 18 1007.2 1004.6 0.0
16/09:00am 32.6 31.3 19.1 44 9.0 NW 24 35 13 19 1007.3 1004.7 0.0
16/08:30am 31.8 30.5 19.1 47 8.4 NW 24 33 13 18 1007.2 1004.6 0.0
16/08:00am 29.7 29.7 19.7 55 6.6 NW 19 24 10 13 1007.3 1004.7 0.0
16/07:30am 28.3 28.2 19.5 59 5.8 NW 19 30 10 16 1007.1 1004.5 0.0
16/07:00am 27.3 27.4 19.1 61 5.3 NW 17 22 9 12 1007.0 1004.4 0.0
16/06:30am 26.5 26.3 18.6 62 5.1 NW 17 24 9 13 1006.7 1004.1 0.0
16/06:00am 26.4 26.6 18.5 62 5.1 NW 15 24 8 13 1006.3 1003.7 0.0
16/05:30am 26.5 26.7 18.6 62 5.1 NW 15 20 8 11 1006.0 1003.5 0.0
16/05:00am 26.4 26.6 19.3 65 4.6 NW 17 24 9 13 1005.6 1003.0 0.0
16/04:30am 26.4 26.9 19.3 65 4.6 NW 15 20 8 11 1005.4 1002.8 0.0
16/04:00am 26.8 26.4 19.4 64 4.8 NNW 20 32 11 17 1005.3 1002.7 0.0
16/03:30am 27.4 26.4 18.9 59 5.5 NNW 22 33 12 18 1005.2 1002.6 0.0
16/03:00am 27.6 26.0 19.1 59 5.6 NNW 26 35 14 19 1005.1 1002.5 0.0
16/02:30am 27.9 26.6 19.1 58 5.8 NNW 24 33 13 18 1005.2 1002.6 0.0
16/02:00am 28.6 27.0 18.4 54 6.6 NNW 24 35 13 19 1005.3 1002.7 0.0
16/01:30am 28.5 28.2 19.2 57 6.1 NNW 19 26 10 14 1005.2 1002.6 0.0
16/01:00am 28.7 28.3 18.8 55 6.5 N 19 24 10 13 1005.2 1002.6 0.0
16/12:30am 29.2 28.4 18.0 51 7.2 N 19 28 10 15 1005.6 1003.0 0.0
16/12:00am 29.0 28.2 18.1 51 7.1 N 19 24 10 13 1005.7 1003.1 0.0
 
Date/Time
CST
Temp
°C
App
Temp
°C
Dew
Point
°C
Rel
Hum
%
Delta-T
°C
Wind Press
QNH
hPa
Press
MSL
hPa
Rain since
9am
mm
Dir  Spd
km/h
Gust
km/h
Spd
kts
Gust
kts
15/11:30pm 28.2 27.7 18.6 56 6.2 NNE 19 26 10 14 1005.5 1002.9 0.0
15/11:00pm 28.0 27.9 20.0 61 5.3 NNE 20 28 11 15 1005.9 1003.4 0.0
15/10:30pm 28.4 27.1 19.1 57 6.1 NE 24 35 13 19 1005.5 1002.9 0.0
15/10:00pm 31.2 29.0 16.8 42 9.2 NE 24 33 13 18 1004.8 1002.2 0.0
15/09:30pm 32.0 29.3 16.7 40 9.8 NE 26 37 14 20 1004.4 1001.8 0.0
15/09:03pm 32.7 30.3 16.5 37 10.3 ENE 24 61 13 33 1004.4 1001.8 0.0
15/09:00pm 33.0 31.9 16.4 37 10.6 NNE 17 35 9 19 1004.3 1001.7 0.0
15/08:30pm 33.5 33.6 16.4 36 11.0 NNW 11 15 6 8 1002.3 999.7 0.0
15/08:00pm 33.9 33.0 15.8 33 11.5 N 15 20 8 11 1002.2 999.6 0.0
15/07:30pm 34.0 31.8 15.9 33 11.6 N 22 30 12 16 1001.9 999.3 0.0
15/07:00pm 35.7 35.2 14.9 29 13.1 NE 11 30 6 16 1002.0 999.4 0.0
15/06:30pm 40.1 39.8 12.8 19 17.0 S 6 13 3 7 1001.2 998.6 0.0
15/06:00pm 40.4 40.0 13.1 20 17.1 SE 7 11 4 6 1000.9 998.3 0.0
15/05:30pm 40.1 39.6 12.8 19 17.0 E 7 13 4 7 1000.9 998.3 0.0
15/05:00pm 39.6 38.5 13.2 21 16.5 E 11 17 6 9 1000.8 998.2 0.0
15/04:30pm 36.5 37.3 18.1 33 12.2 S 11 19 6 10 1001.0 998.4 0.0
15/04:00pm 35.7 32.0 14.9 29 13.1 SSW 28 46 15 25 1001.6 999.0 0.0
15/03:55pm 36.4 34.4 13.8 26 14.1 SW 17 43 9 23 1001.6 999.0 0.0
15/03:30pm 42.1 40.4 13.7 19 18.1 WSW 15 24 8 13 1001.5 998.9 0.0
15/03:00pm 41.4 40.6 13.9 20 17.5 WSW 11 20 6 11 1001.7 999.1 0.0
15/02:30pm 40.9 40.3 13.5 20 17.3 NW 9 15 5 8 1002.1 999.5 0.0
15/02:00pm 40.1 39.8 14.3 22 16.4 N 9 20 5 11 1002.6 1000.0 0.0
15/01:30pm 39.6 38.8 15.2 23 15.7 NNW 13 20 7 11 1003.1 1000.5 0.0
15/01:00pm 39.3 38.7 15.6 24 15.3 NW 13 24 7 13 1003.5 1000.9 0.0
15/12:30pm 39.4 38.3 16.3 25 15.1 NNW 17 30 9 16 1003.8 1001.2 0.0
15/12:00pm 39.0 39.2 17.7 28 14.1 NW 13 20 7 11 1004.2 1001.6 0.0
15/11:30am 37.6 38.3 17.1 30 13.4 WNW 9 17 5 9 1004.5 1001.9 0.0
15/11:00am 36.6 37.6 17.7 32 12.4 WNW 9 19 5 10 1004.9 1002.3 0.0
15/10:30am 36.6 37.8 20.0 38 11.3 NNW 13 20 7 11 1005.3 1002.7 0.0
15/10:00am 35.5 37.2 20.2 40 10.4 N 11 19 6 10 1005.5 1002.9 0.0
15/09:30am 34.6 36.1 20.6 44 9.5 NNW 13 24 7 13 1005.7 1003.1 0.0
15/09:00am 33.6 35.2 21.4 48 8.4 NW 15 20 8 11 1005.9 1003.4 0.2
15/08:30am 32.5 33.8 21.7 53 7.4 NNW 17 24 9 13 1005.9 1003.4 0.2
15/08:00am 31.5 32.7 21.4 55 6.9 NNW 17 22 9 12 1005.9 1003.4 0.2
15/07:30am 30.0 30.9 20.8 57 6.2 NNW 17 22 9 12 1005.7 1003.1 0.2
15/07:00am 28.4 30.1 20.2 61 5.4 NNW 11 13 6 7 1005.6 1003.0 0.2
15/06:30am 27.4 29.1 20.2 65 4.8 NNW 11 13 6 7 1005.2 1002.6 0.2
15/06:00am 27.0 29.1 20.1 66 4.6 NW 9 11 5 6 1005.1 1002.5 0.2
15/05:30am 27.4 28.6 20.0 64 4.9 NW 13 17 7 9 1004.7 1002.1 0.2
15/05:00am 27.8 29.3 19.8 61 5.3 NW 11 15 6 8 1004.4 1001.8 0.2
15/04:30am 28.2 29.4 20.0 61 5.4 NNW 13 17 7 9 1004.2 1001.6 0.2
15/04:00am 28.2 29.8 20.0 61 5.4 NW 11 13 6 7 1004.1 1001.5 0.2
15/03:30am 28.7 30.5 19.6 58 6.0 NNW 9 13 5 7 1004.0 1001.4 0.2
15/03:00am 29.4 30.7 19.4 55 6.6 NNW 11 13 6 7 1004.0 1001.4 0.2
15/02:30am 29.8 31.1 19.2 53 7.0 N 11 13 6 7 1004.1 1001.5 0.2
15/02:00am 29.8 31.8 19.2 53 7.0 N 7 11 4 6 1004.4 1001.8 0.2
15/01:30am 30.3 31.6 18.4 49 7.8 N 9 11 5 6 1004.6 1002.0 0.2
15/01:00am 30.7 31.8 18.8 49 7.8 NNE 11 17 6 9 1004.7 1002.1 0.2
15/12:30am 30.5 31.9 19.5 51 7.3 NE 11 15 6 8 1005.0 1002.4 0.2
15/12:00am 30.4 31.9 19.7 52 7.1 NE 11 13 6 7 1005.3 1002.7 0.2
 
Date/Time
CST
Temp
°C
App
Temp
°C
Dew
Point
°C
Rel
Hum
%
Delta-T
°C
Wind Press
QNH
hPa
Press
MSL
hPa
Rain since
9am
mm
Dir  Spd
km/h
Gust
km/h
Spd
kts
Gust
kts
14/11:30pm 30.5 32.4 19.8 52 7.1 E 9 11 5 6 1005.4 1002.8 0.2
14/11:00pm 31.4 32.7 19.4 49 8.0 E 11 15 6 8 1005.5 1002.9 0.2
14/10:30pm 31.6 33.2 19.9 50 7.8 ESE 11 15 6 8 1005.2 1002.6 0.2
14/10:00pm 31.4 33.5 21.0 54 7.0 SE 11 13 6 7 1005.0 1002.4 0.2
14/09:30pm 31.3 34.9 22.0 57 6.4 SE 6 7 3 4 1004.8 1002.2 0.2
14/09:00pm 32.0 34.5 19.9 48 8.1 E 6 9 3 5 1004.6 1002.0 0.2
14/08:30pm 32.3 35.8 19.5 46 8.5 CALM 0 0 0 0 1004.4 1001.8 0.2
14/08:00pm 33.3 37.1 20.1 45 8.9 CALM 0 0 0 0 1004.1 1001.5 0.2
14/07:30pm 34.4 36.5 17.2 36 11.2 ESE 2 6 1 3 1004.0 1001.4 0.2
14/07:00pm 35.7 36.7 16.9 32 12.2 SE 7 11 4 6 1003.7 1001.1 0.2
14/06:30pm 36.6 37.4 17.2 31 12.7 SE 9 13 5 7 1003.4 1000.8 0.2
14/06:00pm 36.9 37.4 17.5 32 12.8 SE 11 17 6 9 1003.2 1000.6 0.2
14/05:30pm 36.6 37.2 16.7 30 12.9 SE 9 15 5 8 1003.2 1000.6 0.2
14/05:00pm 36.8 37.4 16.9 31 12.9 S 9 17 5 9 1003.0 1000.4 0.2
14/04:30pm 36.8 38.0 16.9 31 13.0 ESE 6 13 3 7 1003.0 1000.4 0.2
14/04:00pm 36.2 37.2 16.9 32 12.5 SSE 7 13 4 7 1003.3 1000.7 0.2
14/03:30pm 36.2 37.0 17.4 33 12.3 SE 9 13 5 7 1003.7 1001.1 0.2
14/03:00pm 35.4 35.4 17.1 33 11.9 SE 13 17 7 9 1004.1 1001.5 0.2
14/02:30pm 35.1 36.1 18.6 37 11.0 SE 11 17 6 9 1004.4 1001.8 0.2
14/02:00pm 33.6 34.2 18.5 40 9.9 S 13 22 7 12 1004.8 1002.2 0.2
14/01:30pm 33.4 33.9 18.3 40 9.9 SSE 13 19 7 10 1005.1 1002.5 0.2
14/01:00pm 34.0 34.9 19.3 42 9.8 SSE 13 22 7 12 1005.5 1002.9 0.2
14/12:30pm 33.7 34.8 19.7 43 9.4 S 13 22 7 12 1005.9 1003.4 0.2
14/12:00pm 33.9 35.0 19.6 43 9.6 SSE 13 22 7 12 1006.4 1003.8 0.2
14/11:30am 32.6 34.5 20.5 49 8.2 SSE 11 17 6 9 1007.0 1004.4 0.2
14/11:00am 32.0 33.2 19.9 48 8.1 SSE 13 20 7 11 1007.4 1004.8 0.2
14/10:30am 31.1 32.7 20.7 54 7.0 ESE 13 20 7 11 1007.7 1005.1 0.2
14/10:00am 30.5 32.4 21.3 58 6.2 SE 13 17 7 9 1007.8 1005.2 0.0
14/09:30am 29.5 32.2 21.4 61 5.5 SE 9 15 5 8 1008.1 1005.5 0.0
14/09:00am 28.3 31.0 21.3 65 4.7 S 9 13 5 7 1008.2 1005.6 -
14/08:30am 27.6 30.4 21.6 70 4.1 WSW 9 11 5 6 1008.0 1005.4 -
14/08:00am 26.4 29.8 21.6 75 3.2 SW 6 7 3 4 1007.8 1005.2 -
14/07:30am 25.4 28.9 22.1 82 2.2 SW 7 11 4 6 1007.6 1005.0 -
14/07:00am 24.7 27.8 22.2 86 1.7 WSW 9 13 5 7 1007.1 1004.5 -
14/06:30am 24.2 27.7 22.1 88 1.4 WSW 7 11 4 6 1006.7 1004.1 -
14/06:00am 24.2 27.8 22.3 89 1.3 WNW 7 9 4 5 1006.3 1003.7 -
14/05:30am 24.1 27.7 22.0 88 1.4 W 6 9 3 5 1006.3 1003.7 -
14/05:00am 24.3 28.0 22.2 88 1.4 WNW 6 9 3 5 1006.4 1003.8 -
14/04:30am 24.5 28.7 22.4 88 1.4 NW 4 9 2 5 1006.6 1004.0 -
14/04:00am 24.6 28.9 21.9 85 1.8 ENE 2 6 1 3 1006.4 1003.8 -
14/03:30am 24.6 29.2 21.7 84 2.0 CALM 0 0 0 0 1006.6 1004.0 -
14/03:00am 24.7 28.1 21.6 83 2.1 SE 6 7 3 4 1006.2 1003.6 2.0
14/02:30am 24.8 27.6 21.5 82 2.2 ESE 9 11 5 6 1006.3 1003.7 -
14/02:00am 25.0 28.0 21.3 80 2.5 WNW 7 9 4 5 1006.0 1003.5 -
14/01:30am 25.3 28.5 21.2 78 2.7 NNW 6 7 3 4 1006.6 1004.0 -
14/01:00am 25.2 27.5 21.3 79 2.6 NNW 11 15 6 8 1006.0 1003.5 -
14/12:30am 25.3 27.4 21.0 77 2.9 NNW 11 17 6 9 1005.4 1002.8 -
14/12:00am 25.6 25.8 20.6 74 3.3 N 20 28 11 15 1005.7 1003.1 -
 
Date/Time
CST
Temp
°C
App
Temp
°C
Dew
Point
°C
Rel
Hum
%
Delta-T
°C
Wind Press
QNH
hPa
Press
MSL
hPa
Rain since
9am
mm
Dir  Spd
km/h
Gust
km/h
Spd
kts
Gust
kts
13/11:30pm 25.5 26.2 21.2 77 2.9 NNE 19 37 10 20 1005.9 1003.4 -
13/11:00pm 25.3 28.8 22.2 83 2.1 NNW 7 9 4 5 1006.7 1004.1 -
13/10:30pm 25.0 28.5 21.9 83 2.1 S 6 9 3 5 1007.7 1005.1 -
13/10:00pm 24.7 24.4 21.8 84 2.0 ESE 26 39 14 21 1007.2 1004.6 -
13/09:35pm 24.3 20.8 21.2 83 2.1 SSE 41 59 22 32 1007.1 1004.5 -
13/09:30pm 25.2 22.4 21.1 78 2.7 SSE 37 59 20 32 1007.1 1004.5 -
13/09:13pm 28.6 26.6 18.4 54 6.6 SSW 26 54 14 29 1007.1 1004.5 -
13/09:12pm 29.2 28.1 18.6 52 6.9 SSW 22 54 12 29 1007.2 1004.6 -
13/09:00pm 29.0 29.7 19.6 57 6.2 SW 15 20 8 11 1006.4 1003.8 6.0
13/08:42pm 28.1 29.4 21.6 68 4.4 SW 17 26 9 14 1005.9 1003.4 -

Other Formats:

Comma delimited format used in spreadsheet applications
http://www.bom.gov.au/fwo/IDD60801/IDD60801.94231.axf

JavaScript Object Notation format (JSON) in row-major order
http://www.bom.gov.au/fwo/IDD60801/IDD60801.94231.json